Time;durP1;ratioP1;P1;durP2;ratioP2;P2;SDS_P1;SDS_P2;PMS_P1;PMS_P2;Temp;Humidity;BMP_temperature;BMP_pressure;BME280_temperature;BME280_humidity;BME280_pressure;Samples;Min_cycle;Max_cycle;Signal;HPM_P1;HPM_P2
2022/01/15 00:00:35;;;;;;;24.20;11.63;;;3.70;94.50;;;;;;20914531;28;20257;-66
2022/01/15 00:10:38;;;;;;;22.57;10.90;;;3.80;94.30;;;;;;20913725;28;20232;-72
2022/01/15 00:20:40;;;;;;;24.50;10.97;;;3.80;94.50;;;;;;20913280;28;20200;-66
2022/01/15 00:30:42;;;;;;;25.87;11.40;;;3.90;94.60;;;;;;20912724;28;20648;-62
2022/01/15 00:48:02;;;;;;;25.20;11.70;;;3.90;94.60;;;;;;21409482;27;20275;-74
2022/01/15 00:58:04;;;;;;;26.60;11.53;;;3.90;94.80;;;;;;21322137;27;20570;-71
2022/01/15 01:08:05;;;;;;;26.67;11.83;;;3.90;94.80;;;;;;21321971;27;20212;-67
2022/01/15 01:28:35;;;;;;;30.67;11.83;;;3.70;95.30;;;;;;21320676;27;20208;-75
2022/01/15 01:38:46;;;;;;;28.07;12.23;;;3.60;95.40;;;;;;21319294;27;20233;-76
2022/01/15 01:48:48;;;;;;;30.13;12.40;;;3.60;95.60;;;;;;21318541;27;20211;-71
2022/01/15 01:58:50;;;;;;;28.70;13.33;;;3.60;95.90;;;;;;21245736;27;20228;-61
2022/01/15 02:08:54;;;;;;;27.57;11.87;;;3.70;95.90;;;;;;21259998;27;20258;-60
2022/01/15 02:18:56;;;;;;;31.73;12.83;;;3.70;96.00;;;;;;21259660;27;20229;-62
2022/01/15 02:29:00;;;;;;;31.83;12.97;;;3.80;96.10;;;;;;21257825;27;20220;-63
2022/01/15 02:39:04;;;;;;;30.70;12.10;;;3.80;96.20;;;;;;21256469;27;20255;-61
2022/01/15 02:51:43;;;;;;;31.90;12.60;;;3.90;96.10;;;;;;20984437;28;20921;-63
2022/01/15 03:01:45;;;;;;;32.00;13.23;;;3.80;96.20;;;;;;20983766;28;20292;-61
2022/01/15 03:11:46;;;;;;;37.17;14.27;;;3.80;96.10;;;;;;20986754;28;20207;-65
2022/01/15 03:21:48;;;;;;;32.03;12.33;;;3.70;96.20;;;;;;20991311;28;20204;-65
2022/01/15 03:31:50;;;;;;;28.23;11.53;;;3.70;96.40;;;;;;20985528;28;20257;-69
2022/01/15 03:41:51;;;;;;;27.63;12.17;;;3.70;96.50;;;;;;20980471;28;20213;-62
2022/01/15 03:51:53;;;;;;;24.33;10.93;;;3.70;96.60;;;;;;20979526;28;20264;-60
2022/01/15 04:01:55;;;;;;;25.93;11.33;;;3.70;96.80;;;;;;20930614;28;20258;-59
2022/01/15 04:11:59;;;;;;;26.70;11.97;;;3.60;96.50;;;;;;20923241;28;20282;-60
2022/01/15 04:22:01;;;;;;;24.20;11.90;;;3.70;96.70;;;;;;20922383;28;20667;-62
2022/01/15 04:32:04;;;;;;;23.60;11.50;;;3.70;96.80;;;;;;20922134;28;20210;-60
2022/01/15 04:42:05;;;;;;;27.13;12.07;;;3.80;96.80;;;;;;20920609;28;20238;-62
2022/01/15 04:52:07;;;;;;;25.10;12.17;;;3.90;97.10;;;;;;20920142;28;20208;-60
2022/01/15 05:02:09;;;;;;;23.90;11.73;;;4.00;96.80;;;;;;20919579;28;20214;-63
2022/01/15 05:12:31;;;;;;;25.67;12.27;;;4.00;96.70;;;;;;20917435;28;20200;-60
2022/01/15 05:25:25;;;;;;;24.23;11.83;;;4.10;96.70;;;;;;21409124;27;20271;-62
2022/01/15 05:35:27;;;;;;;28.30;13.10;;;4.10;97.00;;;;;;21322375;27;20261;-63
2022/01/15 05:45:29;;;;;;;27.80;11.37;;;4.10;96.40;;;;;;21321447;27;20212;-64
2022/01/15 05:55:31;;;;;;;27.77;13.17;;;4.10;96.40;;;;;;21320377;27;20612;-68
2022/01/15 06:05:33;;;;;;;31.23;18.13;;;4.20;96.70;;;;;;21315090;27;20433;-60
2022/01/15 06:15:34;;;;;;;27.13;13.60;;;4.60;96.60;;;;;;21318879;27;20207;-64
2022/01/15 06:25:36;;;;;;;26.83;13.17;;;4.40;96.40;;;;;;21317814;27;20262;-60
2022/01/15 06:35:37;;;;;;;28.53;13.17;;;4.40;96.30;;;;;;21266259;27;20204;-61
2022/01/15 06:45:39;;;;;;;27.87;12.80;;;4.30;96.20;;;;;;21240988;27;20209;-61
2022/01/15 06:55:41;;;;;;;29.17;13.90;;;4.40;96.50;;;;;;21260353;27;20201;-61
2022/01/15 07:05:43;;;;;;;33.67;13.77;;;4.40;96.40;;;;;;21257902;27;20209;-62
2022/01/15 07:15:44;;;;;;;37.20;19.73;;;4.40;96.40;;;;;;21254586;27;20445;-71
2022/01/15 07:29:39;;;;;;;36.43;14.47;;;4.50;96.70;;;;;;21029423;27;20585;-60
2022/01/15 07:39:42;;;;;;;36.23;14.87;;;4.50;96.60;;;;;;20982947;28;20638;-71
2022/01/15 07:49:45;;;;;;;35.23;14.43;;;4.50;96.70;;;;;;20984470;28;20627;-64
2022/01/15 07:59:46;;;;;;;34.23;13.87;;;4.50;96.70;;;;;;20984338;28;20659;-63
2022/01/15 08:09:48;;;;;;;37.33;14.90;;;4.50;96.60;;;;;;20981331;28;20222;-64
2022/01/15 08:19:50;;;;;;;31.53;14.83;;;4.50;96.90;;;;;;20978976;28;20234;-64
2022/01/15 08:29:52;;;;;;;38.43;15.30;;;4.60;96.80;;;;;;21012980;28;20302;-62
2022/01/15 08:39:53;;;;;;;45.70;19.00;;;4.70;97.00;;;;;;20929654;28;20655;-67
2022/01/15 08:49:55;;;;;;;38.50;16.63;;;4.70;96.90;;;;;;20922893;28;20265;-66
2022/01/15 09:03:20;;;;;;;39.40;16.33;;;4.80;97.00;;;;;;20984302;28;20573;-69
2022/01/15 09:13:22;;;;;;;41.13;16.50;;;4.80;97.30;;;;;;20983786;28;20207;-68
2022/01/15 09:23:24;;;;;;;47.23;18.10;;;5.00;97.40;;;;;;20983139;28;20284;-62
2022/01/15 09:33:25;;;;;;;42.47;17.20;;;5.00;97.10;;;;;;20995550;28;20682;-63
2022/01/15 09:43:28;;;;;;;47.67;16.70;;;5.00;97.20;;;;;;20984063;28;20206;-65
2022/01/15 09:53:34;;;;;;;41.80;17.00;;;5.00;97.40;;;;;;20979537;28;20216;-64
2022/01/15 10:03:37;;;;;;;43.87;17.03;;;5.00;97.20;;;;;;20991938;28;20226;-65
2022/01/15 10:13:44;;;;;;;40.43;16.60;;;5.20;97.50;;;;;;21009984;28;20203;-73
2022/01/15 10:23:50;;;;;;;43.57;17.70;;;5.30;97.40;;;;;;21006408;28;20260;-66
2022/01/15 10:33:53;;;;;;;44.40;17.60;;;5.40;97.40;;;;;;21004290;28;20220;-62
2022/01/15 10:43:54;;;;;;;42.03;17.43;;;5.50;97.40;;;;;;20955576;28;20204;-63
2022/01/15 10:54:01;;;;;;;38.40;16.97;;;5.50;97.40;;;;;;20910374;28;20273;-64
2022/01/15 11:04:03;;;;;;;19.27;9.07;;;5.60;97.70;;;;;;20919359;28;20213;-63
2022/01/15 11:14:04;;;;;;;17.27;8.80;;;5.80;97.40;;;;;;20878820;28;20239;-63
2022/01/15 11:24:06;;;;;;;19.37;9.00;;;5.90;97.30;;;;;;20916404;28;20212;-59
2022/01/15 11:34:09;;;;;;;14.03;6.87;;;6.10;97.10;;;;;;20915224;28;20240;-64
2022/01/15 11:44:16;;;;;;;8.97;5.83;;;6.10;96.90;;;;;;20916738;28;20201;-66
2022/01/15 11:54:18;;;;;;;7.53;4.60;;;6.20;96.70;;;;;;20921864;28;20290;-67
2022/01/15 12:04:28;;;;;;;8.93;5.20;;;6.20;96.60;;;;;;20914945;28;20565;-69
2022/01/15 12:14:48;;;;;;;9.67;5.63;;;6.20;96.30;;;;;;20914137;28;20281;-72
2022/01/15 12:24:52;;;;;;;7.07;4.90;;;6.30;96.60;;;;;;20913468;28;20222;-73
2022/01/15 12:34:54;;;;;;;9.33;5.47;;;;;;;;;;20928010;28;20298;-70
2022/01/15 12:44:57;;;;;;;7.20;4.90;;;6.40;96.00;;;;;;20933862;28;20623;-73
2022/01/15 12:55:00;;;;;;;7.63;5.37;;;6.50;96.10;;;;;;20913354;28;20732;-69
2022/01/15 13:05:03;;;;;;;7.07;5.10;;;6.40;95.40;;;;;;20874358;28;20203;-70
2022/01/15 13:15:05;;;;;;;8.53;5.10;;;6.40;95.30;;;;;;20829794;28;20247;-70
2022/01/15 13:25:08;;;;;;;10.77;6.00;;;6.40;95.10;;;;;;20829080;28;20210;-65
2022/01/15 13:35:12;;;;;;;9.37;6.00;;;6.40;94.90;;;;;;20828080;28;20229;-71
2022/01/15 13:45:14;;;;;;;12.73;7.63;;;6.50;94.80;;;;;;20835562;28;20240;-64
2022/01/15 13:55:22;;;;;;;10.83;6.47;;;6.50;94.80;;;;;;20841919;28;20288;-70
2022/01/15 14:05:27;;;;;;;9.30;5.77;;;6.40;94.50;;;;;;20840520;28;20228;-64
2022/01/15 14:15:37;;;;;;;12.90;7.30;;;6.40;94.40;;;;;;20840591;28;20233;-62
2022/01/15 14:25:40;;;;;;;13.00;7.90;;;6.40;94.30;;;;;;20840257;28;20209;-72
2022/01/15 14:35:44;;;;;;;11.17;7.67;;;6.50;94.40;;;;;;20904561;28;20232;-66
2022/01/15 14:45:47;;;;;;;12.33;6.97;;;6.50;94.20;;;;;;20920373;28;20212;-64
2022/01/15 14:55:49;;;;;;;12.67;7.43;;;6.50;94.40;;;;;;20920098;28;20367;-63
2022/01/15 15:05:51;;;;;;;10.17;6.13;;;6.40;93.80;;;;;;20919977;28;20205;-65
2022/01/15 15:15:54;;;;;;;8.00;6.00;;;6.40;94.00;;;;;;20921309;28;20392;-63
2022/01/15 15:25:56;;;;;;;9.63;6.60;;;6.40;93.60;;;;;;20918111;28;20213;-64
2022/01/15 15:35:58;;;;;;;9.20;6.50;;;6.30;93.20;;;;;;20918258;28;20569;-67
2022/01/15 15:46:00;;;;;;;8.83;6.00;;;6.40;93.60;;;;;;20916753;28;20259;-64
2022/01/15 15:56:02;;;;;;;9.33;5.47;;;6.40;93.00;;;;;;20917791;28;20238;-64
2022/01/15 16:06:07;;;;;;;9.33;6.00;;;6.40;92.80;;;;;;20914359;28;20275;-64
2022/01/15 16:16:09;;;;;;;12.27;8.27;;;6.30;92.60;;;;;;20914470;28;20229;-65
2022/01/15 16:26:11;;;;;;;9.47;6.27;;;6.30;92.60;;;;;;20913888;28;20238;-64
2022/01/15 16:44:31;;;;;;;14.77;7.90;;;6.30;92.30;;;;;;20984342;28;20564;-65
2022/01/15 16:54:35;;;;;;;11.73;7.47;;;6.20;92.10;;;;;;20983935;28;20211;-64
2022/01/15 17:13:09;;;;;;;10.13;6.90;;;6.20;91.90;;;;;;21019603;27;20663;-63
2022/01/15 17:27:10;;;;;;;11.20;7.60;;;6.20;91.90;;;;;;20984820;28;20561;-66
2022/01/15 17:37:12;;;;;;;10.83;7.80;;;6.20;91.80;;;;;;20983468;28;20213;-65
2022/01/15 17:47:15;;;;;;;15.10;8.77;;;6.20;91.70;;;;;;20982871;28;20228;-65
2022/01/15 17:57:16;;;;;;;12.77;8.80;;;6.20;91.70;;;;;;20982151;28;20266;-62
2022/01/15 18:07:18;;;;;;;13.27;8.93;;;6.10;91.50;;;;;;20979728;28;20208;-68
2022/01/15 18:17:20;;;;;;;18.73;11.70;;;6.20;91.80;;;;;;20979494;28;20215;-62
2022/01/15 18:27:22;;;;;;;15.97;11.03;;;6.10;91.40;;;;;;20979249;28;20212;-67
2022/01/15 18:37:25;;;;;;;15.53;10.57;;;6.10;91.50;;;;;;20859464;28;20251;-65
2022/01/15 18:49:11;;;;;;;22.13;12.43;;;6.10;91.40;;;;;;21066965;28;20932;-68
2022/01/15 18:59:15;;;;;;;18.37;12.27;;;6.10;91.40;;;;;;21067420;28;20210;-65
2022/01/15 19:09:17;;;;;;;21.50;12.53;;;6.10;91.40;;;;;;21066590;28;20210;-65
2022/01/15 19:24:01;;;;;;;20.47;13.07;;;6.00;91.30;;;;;;20984385;28;20563;-64
2022/01/15 19:34:02;;;;;;;21.23;13.87;;;6.00;91.30;;;;;;20981431;28;20679;-69
2022/01/15 19:44:05;;;;;;;23.70;16.03;;;6.00;91.30;;;;;;20981939;28;20612;-67
2022/01/15 19:54:07;;;;;;;27.13;16.77;;;5.90;91.20;;;;;;20980587;28;20207;-64
2022/01/15 20:04:08;;;;;;;30.50;19.03;;;5.90;91.30;;;;;;20953182;28;20212;-64
2022/01/15 20:14:14;;;;;;;30.60;20.57;;;6.00;91.30;;;;;;20966944;28;20275;-70
2022/01/15 20:24:17;;;;;;;34.23;20.93;;;6.00;91.20;;;;;;20979117;28;20261;-63
2022/01/15 20:34:19;;;;;;;32.27;20.70;;;5.90;91.10;;;;;;20928957;28;20201;-63
2022/01/15 20:44:21;;;;;;;33.20;21.13;;;5.90;91.10;;;;;;20921320;28;20660;-67
2022/01/15 20:54:23;;;;;;;37.90;23.17;;;5.90;91.10;;;;;;20921049;28;20209;-63
2022/01/15 21:04:24;;;;;;;35.23;22.73;;;5.80;91.10;;;;;;20921371;28;20266;-63
2022/01/15 21:14:26;;;;;;;36.57;21.57;;;5.90;91.40;;;;;;20919137;28;20240;-64
2022/01/15 21:24:29;;;;;;;32.63;20.40;;;5.90;91.00;;;;;;20921823;28;20211;-67
2022/01/15 21:34:51;;;;;;;28.77;19.40;;;5.80;91.00;;;;;;20923408;28;20756;-74
2022/01/15 21:44:54;;;;;;;30.57;20.23;;;5.90;91.00;;;;;;20917707;28;20265;-67
2022/01/15 21:55:00;;;;;;;31.40;20.50;;;5.80;90.80;;;;;;20917239;28;20220;-67
2022/01/15 22:05:02;;;;;;;30.83;19.93;;;5.80;90.80;;;;;;20868435;28;20221;-69
2022/01/15 22:15:05;;;;;;;32.07;19.60;;;5.80;90.80;;;;;;20835096;28;20324;-66
2022/01/15 22:25:07;;;;;;;31.00;19.83;;;5.90;91.10;;;;;;20879508;28;20204;-66
2022/01/15 22:35:10;;;;;;;28.30;19.10;;;5.90;90.70;;;;;;20914415;28;20231;-66
2022/01/15 22:45:14;;;;;;;35.27;21.33;;;5.80;90.70;;;;;;20913930;28;20259;-67
2022/01/15 22:55:17;;;;;;;25.60;16.33;;;5.80;90.70;;;;;;20911617;28;20250;-66
2022/01/15 23:05:19;;;;;;;27.13;17.20;;;5.70;90.70;;;;;;20912809;28;20227;-64
2022/01/15 23:25:25;;;;;;;25.53;17.40;;;5.70;90.70;;;;;;20912151;28;20316;-63
2022/01/15 23:35:27;;;;;;;28.93;18.17;;;5.70;90.80;;;;;;20911563;28;20235;-64
2022/01/15 23:45:41;;;;;;;27.70;18.23;;;5.60;90.80;;;;;;20911021;28;20271;-66
2022/01/15 23:55:46;;;;;;;26.67;17.13;;;5.60;91.10;;;;;;20899236;28;20280;-62
